Time;durP1;ratioP1;P1;durP2;ratioP2;P2;SDS_P1;SDS_P2;PMS_P1;PMS_P2;Temp;Humidity;BMP_temperature;BMP_pressure;BME280_temperature;BME280_humidity;BME280_pressure;Samples;Min_cycle;Max_cycle;Signal;HPM_P1;HPM_P2
2021/10/12 00:01:26;;;;;;;7.30;2.95;;;;;;;;;;4989820;28;20030;-39
2021/10/12 00:03:51;;;;;;;3.72;1.85;;;;;;;;;;4989213;28;20027;-39
2021/10/12 00:06:16;;;;;;;4.78;2.13;;;;;;;;;;4988564;28;20762;-38
2021/10/12 00:08:41;;;;;;;3.65;1.90;;;;;;;;;;4986551;28;20045;-39
2021/10/12 00:11:07;;;;;;;2.47;1.67;;;;;;;;;;4987965;28;20386;-40
2021/10/12 00:13:33;;;;;;;2.38;1.77;;;;;;;;;;4993982;28;20380;-38
2021/10/12 00:15:58;;;;;;;2.78;1.92;;;;;;;;;;4992329;28;20034;-42
2021/10/12 00:18:24;;;;;;;5.85;2.15;;;;;;;;;;4990299;28;20022;-41
2021/10/12 00:20:49;;;;;;;4.55;3.17;;;;;;;;;;4984828;28;20365;-39
2021/10/12 00:23:14;;;;;;;2.55;1.85;;;;;;;;;;4986262;28;20026;-39
2021/10/12 00:25:40;;;;;;;2.28;1.60;;;;;;;;;;4987162;28;20038;-40
2021/10/12 00:28:05;;;;;;;1.70;1.10;;;;;;;;;;4991712;28;20399;-41
2021/10/12 00:30:30;;;;;;;1.67;1.17;;;;;;;;;;4992291;28;20163;-39
2021/10/12 00:32:56;;;;;;;2.78;1.88;;;;;;;;;;4989395;28;20493;-40
2021/10/12 00:35:21;;;;;;;2.15;1.52;;;;;;;;;;4988602;28;20144;-39
2021/10/12 00:37:46;;;;;;;9.55;2.05;;;;;;;;;;4993324;28;20029;-38
2021/10/12 00:40:12;;;;;;;1.38;1.08;;;;;;;;;;4988484;28;20064;-41
2021/10/12 00:42:37;;;;;;;4.47;1.98;;;;;;;;;;4990370;28;20098;-38
2021/10/12 00:45:07;;;;;;;3.33;1.92;;;;;;;;;;4989916;28;20058;-39
2021/10/12 00:47:33;;;;;;;3.25;1.83;;;;;;;;;;4992920;28;20014;-40
2021/10/12 00:49:58;;;;;;;2.83;2.00;;;;;;;;;;4990235;28;20018;-39
2021/10/12 00:52:23;;;;;;;4.13;2.15;;;;;;;;;;4992282;28;20365;-42
2021/10/12 00:54:49;;;;;;;2.08;1.60;;;;;;;;;;4994864;28;20479;-40
2021/10/12 00:57:14;;;;;;;3.45;2.35;;;;;;;;;;4991459;28;20018;-41
2021/10/12 00:59:40;;;;;;;3.00;1.73;;;;;;;;;;4989442;28;20026;-38
2021/10/12 01:02:06;;;;;;;2.22;1.65;;;;;;;;;;4988134;28;20022;-39
2021/10/12 01:04:31;;;;;;;2.58;1.52;;;;;;;;;;4993822;28;20022;-39
2021/10/12 01:06:56;;;;;;;2.45;1.40;;;;;;;;;;4992551;28;20021;-38
2021/10/12 01:09:22;;;;;;;2.50;2.22;;;;;;;;;;4989108;28;20064;-41
2021/10/12 01:11:47;;;;;;;2.67;1.67;;;;;;;;;;4992519;28;20033;-39
2021/10/12 01:14:12;;;;;;;3.45;2.20;;;;;;;;;;4988705;28;20018;-39
2021/10/12 01:16:38;;;;;;;3.20;1.70;;;;;;;;;;4988119;28;20018;-38
2021/10/12 01:19:05;;;;;;;3.13;2.13;;;;;;;;;;4990355;28;20026;-39
2021/10/12 01:21:37;;;;;;;4.07;2.05;;;;;;;;;;4990382;28;20035;-39
2021/10/12 01:24:03;;;;;;;2.15;1.67;;;;;;;;;;4991687;28;20034;-44
2021/10/12 01:26:29;;;;;;;1.73;1.17;;;;;;;;;;4993176;28;20010;-43
2021/10/12 01:28:54;;;;;;;3.67;2.28;;;;;;;;;;4985729;28;20022;-39
2021/10/12 01:31:23;;;;;;;2.25;1.30;;;;;;;;;;4991438;28;20038;-39
2021/10/12 01:33:48;;;;;;;2.17;1.55;;;;;;;;;;4996109;28;20028;-39
2021/10/12 01:36:14;;;;;;;2.13;1.55;;;;;;;;;;4983162;28;20564;-41
2021/10/12 01:38:39;;;;;;;5.60;2.78;;;;;;;;;;4991645;28;20044;-38
2021/10/12 01:41:05;;;;;;;7.25;4.05;;;;;;;;;;4986707;28;20072;-38
2021/10/12 01:43:30;;;;;;;4.38;2.25;;;;;;;;;;4987711;28;20037;-39
2021/10/12 01:45:59;;;;;;;2.72;1.95;;;;;;;;;;4990517;28;20118;-41
2021/10/12 01:48:24;;;;;;;3.67;2.00;;;;;;;;;;4992708;28;20025;-39
2021/10/12 01:50:49;;;;;;;2.80;1.98;;;;;;;;;;4990282;28;20500;-39
2021/10/12 01:53:15;;;;;;;2.95;2.22;;;;;;;;;;4986008;28;20048;-39
2021/10/12 01:55:40;;;;;;;3.83;2.58;;;;;;;;;;4986924;28;20018;-39
2021/10/12 01:58:06;;;;;;;2.50;1.60;;;;;;;;;;4990061;28;20014;-42
2021/10/12 02:00:31;;;;;;;3.38;2.60;;;;;;;;;;4990711;28;20079;-40
2021/10/12 02:02:56;;;;;;;3.40;1.95;;;;;;;;;;4987325;28;20030;-43
2021/10/12 02:05:21;;;;;;;2.53;1.92;;;;;;;;;;4985737;28;20030;-44
2021/10/12 02:07:47;;;;;;;3.65;1.63;;;;;;;;;;4991799;28;20441;-42
2021/10/12 02:10:12;;;;;;;6.45;2.58;;;;;;;;;;4990758;28;20026;-46
2021/10/12 02:12:37;;;;;;;10.10;2.67;;;;;;;;;;4991935;28;20503;-44
2021/10/12 02:15:03;;;;;;;3.15;2.45;;;;;;;;;;4992151;28;20018;-42
2021/10/12 02:17:28;;;;;;;8.32;2.75;;;;;;;;;;4987616;28;20068;-42
2021/10/12 02:19:54;;;;;;;7.65;2.92;;;;;;;;;;4993525;28;20042;-44
2021/10/12 02:22:19;;;;;;;2.53;2.33;;;;;;;;;;4990296;28;20061;-41
2021/10/12 02:24:45;;;;;;;3.83;1.83;;;;;;;;;;4986345;28;20018;-41
2021/10/12 02:27:10;;;;;;;3.92;2.17;;;;;;;;;;4991734;28;20099;-42
2021/10/12 02:29:35;;;;;;;3.08;1.67;;;;;;;;;;4989613;28;20515;-40
2021/10/12 02:32:00;;;;;;;4.40;2.17;;;;;;;;;;4989808;28;20035;-43
2021/10/12 02:34:26;;;;;;;4.30;1.98;;;;;;;;;;4989550;28;20018;-42
2021/10/12 02:36:51;;;;;;;2.90;2.03;;;;;;;;;;4996289;28;20023;-41
2021/10/12 02:39:17;;;;;;;2.45;1.55;;;;;;;;;;4996067;28;20021;-40
2021/10/12 02:41:42;;;;;;;2.97;1.75;;;;;;;;;;4994360;28;20030;-39
2021/10/12 02:44:07;;;;;;;2.88;2.17;;;;;;;;;;4993414;28;20132;-41
2021/10/12 02:46:33;;;;;;;8.55;1.88;;;;;;;;;;4993148;28;20038;-39
2021/10/12 02:48:58;;;;;;;5.93;2.90;;;;;;;;;;4987287;28;20107;-39
2021/10/12 02:51:23;;;;;;;3.33;1.85;;;;;;;;;;4987476;28;20190;-39
2021/10/12 02:53:49;;;;;;;3.50;2.45;;;;;;;;;;4994575;28;20101;-41
2021/10/12 02:56:14;;;;;;;7.25;3.03;;;;;;;;;;4994717;28;20030;-42
2021/10/12 02:58:40;;;;;;;3.17;1.63;;;;;;;;;;4990044;28;20027;-38
2021/10/12 03:01:05;;;;;;;10.15;2.13;;;;;;;;;;4991530;28;20034;-39
2021/10/12 03:03:32;;;;;;;8.10;2.88;;;;;;;;;;4989506;28;20019;-38
2021/10/12 03:05:58;;;;;;;3.72;2.42;;;;;;;;;;4993545;28;20112;-39
2021/10/12 03:08:23;;;;;;;4.90;3.03;;;;;;;;;;4991359;28;20110;-39
2021/10/12 03:10:49;;;;;;;2.65;1.85;;;;;;;;;;4988027;28;20087;-40
2021/10/12 03:13:15;;;;;;;5.85;3.10;;;;;;;;;;4990768;28;20106;-42
2021/10/12 03:15:40;;;;;;;4.03;2.65;;;;;;;;;;4990982;28;20117;-40
2021/10/12 03:18:05;;;;;;;2.05;1.58;;;;;;;;;;4989917;28;20600;-41
2021/10/12 03:20:31;;;;;;;3.05;2.17;;;;;;;;;;4992438;28;20021;-39
2021/10/12 03:22:56;;;;;;;7.97;2.72;;;;;;;;;;4998332;28;20527;-39
2021/10/12 03:25:21;;;;;;;2.53;1.65;;;;;;;;;;4994820;28;20630;-42
2021/10/12 03:27:47;;;;;;;3.63;2.40;;;;;;;;;;4993536;28;20026;-41
2021/10/12 03:30:12;;;;;;;3.35;2.70;;;;;;;;;;4987770;28;20136;-38
2021/10/12 03:32:37;;;;;;;2.65;1.95;;;;;;;;;;4989537;28;20023;-42
2021/10/12 03:35:03;;;;;;;2.28;1.58;;;;;;;;;;4991635;28;20049;-38
2021/10/12 03:37:28;;;;;;;7.82;1.65;;;;;;;;;;4990321;28;20018;-41
2021/10/12 03:39:53;;;;;;;4.10;2.17;;;;;;;;;;4990737;28;20023;-40
2021/10/12 03:42:19;;;;;;;3.47;1.98;;;;;;;;;;4989550;28;20026;-40
2021/10/12 03:44:44;;;;;;;2.63;2.15;;;;;;;;;;4991403;28;20054;-40
2021/10/12 03:47:10;;;;;;;2.45;1.88;;;;;;;;;;4989914;28;20022;-40
2021/10/12 03:49:36;;;;;;;4.30;2.47;;;;;;;;;;4991849;28;20050;-44
2021/10/12 03:52:01;;;;;;;3.42;2.60;;;;;;;;;;4992231;28;20100;-40
2021/10/12 03:54:26;;;;;;;2.70;2.15;;;;;;;;;;4991326;28;20475;-42
2021/10/12 03:56:52;;;;;;;3.78;1.90;;;;;;;;;;4986421;28;20523;-41
2021/10/12 03:59:17;;;;;;;3.88;2.13;;;;;;;;;;4989039;28;20096;-40
2021/10/12 04:01:42;;;;;;;3.28;2.03;;;;;;;;;;4991667;28;20124;-38
2021/10/12 04:04:08;;;;;;;3.22;2.28;;;;;;;;;;4992317;28;20399;-42
2021/10/12 04:06:33;;;;;;;2.15;1.70;;;;;;;;;;4986685;28;20114;-42
2021/10/12 04:08:58;;;;;;;2.80;1.92;;;;;;;;;;4989878;28;20494;-46
2021/10/12 04:11:24;;;;;;;2.80;1.88;;;;;;;;;;4987646;28;20030;-41
2021/10/12 04:13:49;;;;;;;3.20;1.63;;;;;;;;;;4990703;28;20023;-41
2021/10/12 04:16:15;;;;;;;2.75;1.88;;;;;;;;;;4994688;28;20022;-40
2021/10/12 04:18:40;;;;;;;3.03;1.83;;;;;;;;;;4992078;28;20032;-40
2021/10/12 04:21:05;;;;;;;11.15;3.63;;;;;;;;;;4987506;28;20030;-42
2021/10/12 04:23:31;;;;;;;3.63;2.08;;;;;;;;;;4989144;28;20652;-40
2021/10/12 04:25:57;;;;;;;3.35;2.00;;;;;;;;;;4992030;28;20028;-42
2021/10/12 04:28:22;;;;;;;6.50;1.52;;;;;;;;;;4989697;28;20498;-45
2021/10/12 04:30:48;;;;;;;3.50;1.90;;;;;;;;;;4992724;28;20026;-41
2021/10/12 04:33:16;;;;;;;3.05;1.63;;;;;;;;;;4988166;28;20692;-41
2021/10/12 04:35:43;;;;;;;2.13;1.40;;;;;;;;;;4988411;28;20251;-42
2021/10/12 04:38:08;;;;;;;3.40;1.98;;;;;;;;;;4988450;28;20022;-39
2021/10/12 04:40:34;;;;;;;3.92;1.70;;;;;;;;;;4988376;28;20026;-38
2021/10/12 04:43:01;;;;;;;1.88;1.02;;;;;;;;;;4986972;28;20018;-44
2021/10/12 04:45:26;;;;;;;1.73;1.55;;;;;;;;;;4989525;28;20046;-42
2021/10/12 04:47:52;;;;;;;18.85;2.25;;;;;;;;;;4994569;28;20075;-38
2021/10/12 04:50:17;;;;;;;5.70;2.15;;;;;;;;;;4984870;28;20639;-39
2021/10/12 04:52:43;;;;;;;3.67;2.03;;;;;;;;;;4989364;28;20019;-39
2021/10/12 04:55:09;;;;;;;8.93;2.22;;;;;;;;;;4988791;28;20068;-43
2021/10/12 04:57:34;;;;;;;9.15;2.78;;;;;;;;;;4986483;28;20018;-42
2021/10/12 05:00:00;;;;;;;4.97;3.00;;;;;;;;;;4987748;28;20022;-40
2021/10/12 05:02:25;;;;;;;2.67;2.03;;;;;;;;;;4990368;28;20113;-40
2021/10/12 05:04:50;;;;;;;4.25;3.15;;;;;;;;;;4991721;28;20726;-40
2021/10/12 05:07:15;;;;;;;7.32;3.13;;;;;;;;;;4996307;28;20481;-44
2021/10/12 05:09:41;;;;;;;4.28;3.28;;;;;;;;;;4995673;28;20019;-40
2021/10/12 05:12:06;;;;;;;3.88;2.70;;;;;;;;;;4986550;28;20450;-44
2021/10/12 05:14:32;;;;;;;3.72;2.88;;;;;;;;;;4992089;28;20094;-39
2021/10/12 05:17:00;;;;;;;2.95;1.98;;;;;;;;;;4987256;28;20041;-42
2021/10/12 05:19:25;;;;;;;5.75;2.58;;;;;;;;;;4994209;28;20018;-38
2021/10/12 05:21:51;;;;;;;2.17;1.45;;;;;;;;;;4990028;28;20079;-42
2021/10/12 05:24:16;;;;;;;2.97;1.88;;;;;;;;;;4989627;28;20037;-44
2021/10/12 05:26:41;;;;;;;2.70;2.08;;;;;;;;;;4982068;28;20034;-44
2021/10/12 05:29:09;;;;;;;4.63;3.22;;;;;;;;;;4988502;28;20556;-40
2021/10/12 05:31:34;;;;;;;2.50;1.95;;;;;;;;;;4994484;28;20086;-42
2021/10/12 05:34:00;;;;;;;2.75;2.10;;;;;;;;;;4993176;28;20483;-40
2021/10/12 05:36:25;;;;;;;3.13;1.83;;;;;;;;;;4989185;28;20734;-40
2021/10/12 05:38:50;;;;;;;2.50;1.65;;;;;;;;;;4987446;28;20032;-39
2021/10/12 05:41:15;;;;;;;10.23;3.10;;;;;;;;;;4989330;28;20045;-41
2021/10/12 05:43:41;;;;;;;3.08;2.25;;;;;;;;;;4988750;28;20050;-41
2021/10/12 05:46:06;;;;;;;5.47;1.73;;;;;;;;;;4991434;28;20666;-39
2021/10/12 05:48:32;;;;;;;3.25;2.33;;;;;;;;;;4988833;28;20049;-42
2021/10/12 05:50:57;;;;;;;2.95;2.28;;;;;;;;;;4987399;28;20483;-43
2021/10/12 05:53:28;;;;;;;3.80;2.05;;;;;;;;;;4992266;28;20047;-43
2021/10/12 05:55:56;;;;;;;3.97;3.05;;;;;;;;;;4989382;28;20026;-43
2021/10/12 05:58:29;;;;;;;9.00;3.75;;;;;;;;;;4987980;28;20030;-41
2021/10/12 06:00:54;;;;;;;8.07;2.67;;;;;;;;;;4990375;28;20026;-38
2021/10/12 06:03:21;;;;;;;10.52;2.78;;;;;;;;;;4991757;28;20130;-38
2021/10/12 06:05:46;;;;;;;8.07;2.60;;;;;;;;;;4986359;28;20019;-44
2021/10/12 06:08:11;;;;;;;2.80;2.22;;;;;;;;;;4991039;28;20030;-45
2021/10/12 06:10:38;;;;;;;7.50;3.38;;;;;;;;;;4990153;28;20026;-41
2021/10/12 06:13:08;;;;;;;3.55;2.70;;;;;;;;;;4994688;28;20528;-44
2021/10/12 06:15:34;;;;;;;5.75;3.33;;;;;;;;;;4990080;28;20105;-43
2021/10/12 06:17:59;;;;;;;2.53;2.03;;;;;;;;;;4995606;28;20129;-45
2021/10/12 06:20:25;;;;;;;3.58;2.63;;;;;;;;;;4992614;28;20026;-43
2021/10/12 06:22:50;;;;;;;4.93;2.60;;;;;;;;;;4989219;28;20030;-44
2021/10/12 06:25:15;;;;;;;4.38;2.97;;;;;;;;;;4987417;28;20082;-48
2021/10/12 06:27:43;;;;;;;6.13;3.40;;;;;;;;;;4993552;28;20087;-46
2021/10/12 06:30:08;;;;;;;4.80;2.38;;;;;;;;;;4997497;28;20023;-45
2021/10/12 06:32:33;;;;;;;3.80;3.33;;;;;;;;;;4991811;28;20684;-39
2021/10/12 06:34:59;;;;;;;3.47;3.05;;;;;;;;;;4993793;28;20030;-44
2021/10/12 06:37:24;;;;;;;3.10;2.65;;;;;;;;;;4995439;28;20535;-43
2021/10/12 06:39:49;;;;;;;3.67;2.95;;;;;;;;;;4992339;28;20030;-42
2021/10/12 06:42:14;;;;;;;3.80;2.88;;;;;;;;;;4990549;28;20038;-42
2021/10/12 06:44:40;;;;;;;7.53;3.42;;;;;;;;;;4995933;28;20145;-41
2021/10/12 06:47:05;;;;;;;7.32;4.28;;;;;;;;;;4992419;28;20025;-42
2021/10/12 06:49:30;;;;;;;6.63;4.35;;;;;;;;;;4990091;28;20075;-42
2021/10/12 06:51:56;;;;;;;3.63;2.85;;;;;;;;;;4988418;28;20403;-43
2021/10/12 06:54:21;;;;;;;23.25;17.15;;;;;;;;;;4993692;28;20821;-42
2021/10/12 06:56:48;;;;;;;4.75;4.03;;;;;;;;;;4993969;28;20042;-41
2021/10/12 06:59:14;;;;;;;3.45;2.42;;;;;;;;;;4992403;28;20022;-41
2021/10/12 07:01:39;;;;;;;5.25;2.83;;;;;;;;;;4986557;28;20390;-45
2021/10/12 07:04:04;;;;;;;4.13;3.05;;;;;;;;;;4992583;28;20034;-42
2021/10/12 07:06:30;;;;;;;4.63;3.05;;;;;;;;;;4991011;28;20481;-42
2021/10/12 07:08:55;;;;;;;6.82;3.47;;;;;;;;;;4991306;28;20417;-42
2021/10/12 07:11:21;;;;;;;14.15;4.10;;;;;;;;;;4992383;28;20018;-41
2021/10/12 07:13:47;;;;;;;4.85;2.70;;;;;;;;;;4989008;28;20045;-40
2021/10/12 07:16:14;;;;;;;8.40;3.63;;;;;;;;;;4987378;28;20057;-41
2021/10/12 07:18:39;;;;;;;4.32;2.78;;;;;;;;;;4989964;28;20014;-40
2021/10/12 07:21:04;;;;;;;4.65;2.75;;;;;;;;;;4997818;28;20034;-39
2021/10/12 07:23:30;;;;;;;9.80;2.78;;;;;;;;;;4994665;28;20069;-39
2021/10/12 07:25:55;;;;;;;3.78;3.08;;;;;;;;;;4991718;28;20018;-39
2021/10/12 07:28:20;;;;;;;3.35;2.80;;;;;;;;;;4987333;28;20018;-39
2021/10/12 07:30:45;;;;;;;3.85;2.72;;;;;;;;;;4989562;28;20018;-43
2021/10/12 07:33:11;;;;;;;4.70;3.00;;;;;;;;;;4992292;28;20109;-41
2021/10/12 07:35:42;;;;;;;6.00;5.40;;;;;;;;;;4997408;28;20036;-41
2021/10/12 07:38:08;;;;;;;12.93;5.85;;;;;;;;;;4993133;28;20034;-39
2021/10/12 07:40:33;;;;;;;6.15;5.07;;;;;;;;;;4992118;28;20038;-40
2021/10/12 07:42:58;;;;;;;7.07;4.03;;;;;;;;;;4995194;28;20022;-39
2021/10/12 07:45:23;;;;;;;8.02;5.25;;;;;;;;;;4992593;28;20525;-41
2021/10/12 07:47:49;;;;;;;7.35;3.17;;;;;;;;;;4999542;28;20034;-39
2021/10/12 07:50:15;;;;;;;5.00;3.95;;;;;;;;;;4994954;28;20049;-41
2021/10/12 07:52:43;;;;;;;8.02;3.88;;;;;;;;;;4990310;28;20031;-41
2021/10/12 07:57:33;;;;;;;6.68;5.03;;;;;;;;;;4987098;28;20420;-42
2021/10/12 07:59:58;;;;;;;23.20;5.30;;;;;;;;;;4988394;28;20042;-41
2021/10/12 08:02:24;;;;;;;11.18;7.07;;;;;;;;;;4990075;28;20032;-40
2021/10/12 08:04:49;;;;;;;16.27;6.18;;;;;;;;;;4994559;28;20487;-38
2021/10/12 08:07:15;;;;;;;11.45;5.05;;;;;;;;;;4988152;28;20110;-38
2021/10/12 08:09:40;;;;;;;8.43;4.93;;;;;;;;;;4992412;28;20357;-40
2021/10/12 08:12:06;;;;;;;12.30;4.70;;;;;;;;;;4985355;28;20026;-38
2021/10/12 08:14:35;;;;;;;6.68;5.07;;;;;;;;;;4989745;28;20396;-39
2021/10/12 08:17:00;;;;;;;5.28;4.13;;;;;;;;;;4991776;28;20024;-40
2021/10/12 08:19:25;;;;;;;6.25;5.22;;;;;;;;;;4991514;28;20026;-40
2021/10/12 08:21:51;;;;;;;5.53;4.57;;;;;;;;;;4987550;28;20026;-38
2021/10/12 08:24:20;;;;;;;6.85;4.10;;;;;;;;;;4990846;28;20590;-38
2021/10/12 08:26:45;;;;;;;6.75;4.07;;;;;;;;;;4986398;28;20026;-39
2021/10/12 08:29:10;;;;;;;4.10;3.53;;;;;;;;;;4991657;28;20019;-44
2021/10/12 08:31:36;;;;;;;9.25;8.32;;;;;;;;;;4993228;28;20021;-43
2021/10/12 08:34:01;;;;;;;11.93;9.75;;;;;;;;;;4992943;28;20068;-40
2021/10/12 08:36:26;;;;;;;9.30;7.22;;;;;;;;;;4992585;28;20060;-40
2021/10/12 08:38:55;;;;;;;7.72;5.93;;;;;;;;;;4988292;28;20022;-42
2021/10/12 08:41:24;;;;;;;6.65;5.80;;;;;;;;;;4985829;28;20027;-40
2021/10/12 08:43:52;;;;;;;5.82;5.15;;;;;;;;;;4990444;28;20119;-43
2021/10/12 08:46:20;;;;;;;6.43;5.72;;;;;;;;;;4988224;28;20019;-39
2021/10/12 08:48:45;;;;;;;8.27;4.78;;;;;;;;;;4987912;28;20196;-41
2021/10/12 08:51:10;;;;;;;4.75;3.47;;;;;;;;;;4987110;28;20543;-46
2021/10/12 08:53:36;;;;;;;10.48;9.50;;;;;;;;;;4987240;28;20023;-47
2021/10/12 08:56:02;;;;;;;3.50;3.15;;;;;;;;;;4989372;28;20531;-43
2021/10/12 08:58:27;;;;;;;4.80;3.15;;;;;;;;;;4987612;28;20579;-40
2021/10/12 09:01:08;;;;;;;4.03;3.38;;;;;;;;;;4988548;28;20038;-39
2021/10/12 09:03:43;;;;;;;3.00;2.63;;;;;;;;;;4989882;28;20026;-46
2021/10/12 09:06:09;;;;;;;4.20;3.80;;;;;;;;;;4987948;28;20026;-40
2021/10/12 09:08:38;;;;;;;5.78;3.15;;;;;;;;;;4990396;28;20762;-39
2021/10/12 09:11:04;;;;;;;6.65;2.75;;;;;;;;;;4994330;28;20046;-40
2021/10/12 09:13:41;;;;;;;4.85;2.75;;;;;;;;;;4983406;28;20495;-40
2021/10/12 09:16:14;;;;;;;5.65;2.78;;;;;;;;;;4990799;28;20107;-40
2021/10/12 09:18:46;;;;;;;8.32;3.15;;;;;;;;;;4989196;28;20419;-39
2021/10/12 09:21:38;;;;;;;4.90;3.10;;;;;;;;;;4986350;28;20053;-41
2021/10/12 09:24:14;;;;;;;3.08;2.67;;;;;;;;;;4992269;28;20091;-40
2021/10/12 09:26:40;;;;;;;9.02;6.90;;;;;;;;;;4986389;28;20029;-41
2021/10/12 09:29:13;;;;;;;4.68;3.25;;;;;;;;;;4987020;28;20019;-41
2021/10/12 09:31:39;;;;;;;3.95;3.28;;;;;;;;;;4986059;28;20595;-43
2021/10/12 09:34:05;;;;;;;3.95;2.88;;;;;;;;;;4991455;28;20048;-39
2021/10/12 09:36:51;;;;;;;3.38;2.95;;;;;;;;;;4988946;28;20439;-39
2021/10/12 09:39:18;;;;;;;3.00;2.25;;;;;;;;;;4990525;28;20062;-39
2021/10/12 09:41:54;;;;;;;3.33;2.85;;;;;;;;;;4989808;28;20133;-39
2021/10/12 09:44:19;;;;;;;9.77;3.90;;;;;;;;;;4989694;28;20069;-38
2021/10/12 09:46:46;;;;;;;5.10;3.20;;;;;;;;;;4984921;28;20114;-38
2021/10/12 09:49:18;;;;;;;5.10;3.92;;;;;;;;;;4989175;28;20101;-42
2021/10/12 09:52:02;;;;;;;7.03;4.20;;;;;;;;;;4994048;28;20316;-46
2021/10/12 09:54:29;;;;;;;6.88;4.82;;;;;;;;;;4990827;28;20053;-44
2021/10/12 09:56:55;;;;;;;6.18;4.22;;;;;;;;;;4996298;28;20051;-43
2021/10/12 09:59:20;;;;;;;6.85;6.25;;;;;;;;;;4982954;28;20022;-41
2021/10/12 10:01:47;;;;;;;7.60;3.17;;;;;;;;;;4987672;28;20026;-45
2021/10/12 10:04:15;;;;;;;5.95;2.83;;;;;;;;;;4987442;28;20049;-43
2021/10/12 10:06:42;;;;;;;6.55;5.45;;;;;;;;;;4989275;28;20053;-45
2021/10/12 10:09:08;;;;;;;7.82;2.75;;;;;;;;;;4989609;28;20537;-47
2021/10/12 10:11:34;;;;;;;5.57;3.97;;;;;;;;;;4989369;28;20029;-45
2021/10/12 10:14:01;;;;;;;5.07;4.55;;;;;;;;;;4987250;28;20023;-44
2021/10/12 10:16:27;;;;;;;5.43;3.60;;;;;;;;;;4989224;28;20040;-49
2021/10/12 10:18:52;;;;;;;8.07;6.85;;;;;;;;;;4993741;28;20475;-47
2021/10/12 10:21:18;;;;;;;5.65;4.13;;;;;;;;;;4984665;28;20026;-51
2021/10/12 10:23:53;;;;;;;4.65;3.38;;;;;;;;;;4982817;28;20103;-46
2021/10/12 10:26:22;;;;;;;6.10;3.53;;;;;;;;;;4984145;28;20056;-48
2021/10/12 10:28:47;;;;;;;2.78;2.22;;;;;;;;;;4997588;28;20129;-45
2021/10/12 10:31:12;;;;;;;4.05;2.72;;;;;;;;;;4991561;28;20105;-48
2021/10/12 10:33:39;;;;;;;3.50;2.20;;;;;;;;;;4981920;28;20505;-47
2021/10/12 10:36:08;;;;;;;3.97;2.10;;;;;;;;;;4979217;28;20027;-45
2021/10/12 10:38:42;;;;;;;4.35;3.92;;;;;;;;;;4985553;28;20021;-45
2021/10/12 10:41:10;;;;;;;9.43;3.50;;;;;;;;;;4986806;28;20095;-46
2021/10/12 10:43:54;;;;;;;6.22;4.40;;;;;;;;;;4985849;28;20046;-46
2021/10/12 10:46:31;;;;;;;6.57;4.95;;;;;;;;;;4979064;28;20113;-47
2021/10/12 10:49:04;;;;;;;3.53;2.58;;;;;;;;;;4984929;28;20026;-45
2021/10/12 10:51:44;;;;;;;2.90;2.17;;;;;;;;;;4985009;28;20535;-44
2021/10/12 10:54:29;;;;;;;3.10;2.33;;;;;;;;;;4988797;28;20058;-45
2021/10/12 10:57:07;;;;;;;6.97;2.53;;;;;;;;;;4985389;28;20018;-45
2021/10/12 10:59:34;;;;;;;5.70;3.83;;;;;;;;;;4985239;28;20217;-45
2021/10/12 11:01:59;;;;;;;3.47;2.28;;;;;;;;;;4990255;28;20068;-43
2021/10/12 11:04:40;;;;;;;3.10;2.13;;;;;;;;;;4990727;28;20522;-45
2021/10/12 11:07:05;;;;;;;3.70;3.10;;;;;;;;;;4986813;28;20667;-47
2021/10/12 11:09:41;;;;;;;1.65;1.05;;;;;;;;;;4988202;28;20105;-44
2021/10/12 11:12:16;;;;;;;3.10;2.28;;;;;;;;;;4995370;28;20075;-47
2021/10/12 11:14:41;;;;;;;2.25;1.58;;;;;;;;;;4989517;28;20023;-47
2021/10/12 11:17:09;;;;;;;2.78;1.60;;;;;;;;;;4991383;28;20522;-45
2021/10/12 11:19:53;;;;;;;3.47;2.63;;;;;;;;;;4986555;28;20099;-48
2021/10/12 11:22:19;;;;;;;3.08;2.25;;;;;;;;;;4988447;28;20196;-44
2021/10/12 11:24:47;;;;;;;6.60;3.05;;;;;;;;;;4989366;28;20125;-48
2021/10/12 11:27:13;;;;;;;6.65;6.05;;;;;;;;;;4991039;28;20078;-48
2021/10/12 11:29:38;;;;;;;4.47;2.83;;;;;;;;;;4989200;28;20038;-46
2021/10/12 11:32:04;;;;;;;5.90;4.18;;;;;;;;;;4985682;28;20081;-42
2021/10/12 11:34:31;;;;;;;4.88;4.22;;;;;;;;;;4995343;28;20519;-43
2021/10/12 11:37:09;;;;;;;3.30;2.22;;;;;;;;;;4991016;28;20027;-46
2021/10/12 11:39:35;;;;;;;4.07;2.00;;;;;;;;;;4997227;28;20029;-43
2021/10/12 11:42:01;;;;;;;7.40;1.83;;;;;;;;;;4979940;28;20087;-48
2021/10/12 11:44:26;;;;;;;3.85;2.58;;;;;;;;;;4987484;28;20127;-45
2021/10/12 11:46:54;;;;;;;4.72;3.28;;;;;;;;;;4990444;28;20034;-47
2021/10/12 11:49:20;;;;;;;4.43;2.95;;;;;;;;;;4992073;28;20399;-45
2021/10/12 11:51:47;;;;;;;2.17;1.55;;;;;;;;;;4989049;28;20030;-43
2021/10/12 11:54:13;;;;;;;2.17;1.67;;;;;;;;;;4986135;28;20062;-44
2021/10/12 11:56:39;;;;;;;5.35;4.45;;;;;;;;;;4989796;28;20512;-42
2021/10/12 11:59:06;;;;;;;1.88;1.60;;;;;;;;;;4987746;28;20071;-43
2021/10/12 12:01:36;;;;;;;6.35;2.70;;;;;;;;;;4988063;28;20082;-44
2021/10/12 12:04:03;;;;;;;5.53;2.28;;;;;;;;;;4992252;28;20028;-44
2021/10/12 12:06:29;;;;;;;2.80;2.15;;;;;;;;;;4985906;28;20022;-45
2021/10/12 12:08:56;;;;;;;7.75;3.03;;;;;;;;;;4987975;28;20742;-48
2021/10/12 12:11:23;;;;;;;3.35;2.38;;;;;;;;;;4989873;28;20521;-42
2021/10/12 12:13:49;;;;;;;2.83;1.92;;;;;;;;;;4993200;28;20019;-41
2021/10/12 12:16:17;;;;;;;3.40;2.90;;;;;;;;;;4988445;28;20027;-44
2021/10/12 12:18:42;;;;;;;3.22;1.55;;;;;;;;;;4991502;28;20018;-49
2021/10/12 12:21:07;;;;;;;3.33;1.92;;;;;;;;;;4987913;28;20030;-49
2021/10/12 12:23:37;;;;;;;3.15;2.67;;;;;;;;;;4985740;28;20494;-45
2021/10/12 12:26:04;;;;;;;3.20;2.23;;;;;;;;;;4990992;28;20123;-47
2021/10/12 12:28:29;;;;;;;5.28;3.13;;;;;;;;;;4986292;28;20019;-45
2021/10/12 12:30:55;;;;;;;3.72;2.45;;;;;;;;;;4990388;28;20497;-46
2021/10/12 12:33:20;;;;;;;7.35;2.47;;;;;;;;;;4983795;28;20501;-45
2021/10/12 12:35:47;;;;;;;3.38;2.90;;;;;;;;;;4992457;28;20067;-43
2021/10/12 12:38:21;;;;;;;2.92;1.88;;;;;;;;;;4984346;28;20145;-47
2021/10/12 12:40:47;;;;;;;3.53;2.05;;;;;;;;;;4988037;28;20032;-45
2021/10/12 12:43:18;;;;;;;4.30;1.30;;;;;;;;;;4988547;28;20359;-48
2021/10/12 12:45:44;;;;;;;3.25;2.63;;;;;;;;;;4992211;28;20057;-46
2021/10/12 12:48:09;;;;;;;2.38;2.10;;;;;;;;;;4990181;28;20026;-48
2021/10/12 12:50:35;;;;;;;9.60;1.67;;;;;;;;;;4986748;28;20026;-46
2021/10/12 12:53:03;;;;;;;3.80;2.30;;;;;;;;;;4990883;28;20026;-47
2021/10/12 12:55:34;;;;;;;4.53;3.22;;;;;;;;;;4992160;28;20060;-48
2021/10/12 12:58:00;;;;;;;4.15;2.20;;;;;;;;;;4990531;28;20124;-45
2021/10/12 13:00:25;;;;;;;4.00;3.33;;;;;;;;;;4988924;28;20483;-46
2021/10/12 13:02:54;;;;;;;4.20;2.78;;;;;;;;;;4990778;28;20033;-48
2021/10/12 13:05:20;;;;;;;5.45;3.05;;;;;;;;;;4994224;28;20053;-49
2021/10/12 13:07:45;;;;;;;3.42;2.72;;;;;;;;;;4987140;28;20639;-49
2021/10/12 13:10:10;;;;;;;2.88;1.88;;;;;;;;;;4988312;28;20022;-43
2021/10/12 13:12:36;;;;;;;1.42;0.85;;;;;;;;;;4992764;28;20109;-47
2021/10/12 13:15:02;;;;;;;7.25;3.88;;;;;;;;;;4989523;28;20459;-45
2021/10/12 13:17:27;;;;;;;2.22;1.85;;;;;;;;;;4984353;28;20021;-44
2021/10/12 13:19:53;;;;;;;3.83;3.42;;;;;;;;;;4989396;28;20372;-44
2021/10/12 13:22:19;;;;;;;5.32;3.25;;;;;;;;;;4986416;28;20022;-46
2021/10/12 13:24:45;;;;;;;4.30;3.40;;;;;;;;;;4986393;28;20038;-48
2021/10/12 13:27:10;;;;;;;2.67;2.28;;;;;;;;;;4994814;28;20025;-48
2021/10/12 13:29:35;;;;;;;11.73;4.82;;;;;;;;;;4993002;28;20494;-45
2021/10/12 13:32:01;;;;;;;2.70;2.25;;;;;;;;;;4989604;28;20022;-46
2021/10/12 13:34:27;;;;;;;3.95;2.50;;;;;;;;;;4986287;28;20023;-43
2021/10/12 13:36:52;;;;;;;3.53;2.50;;;;;;;;;;4989560;28;20104;-46
2021/10/12 13:39:17;;;;;;;5.97;3.72;;;;;;;;;;4995636;28;20010;-49
2021/10/12 13:41:43;;;;;;;5.70;2.50;;;;;;;;;;4982481;28;20064;-45
2021/10/12 13:44:08;;;;;;;27.00;24.25;;;;;;;;;;4988346;28;20058;-42
2021/10/12 13:46:33;;;;;;;3.80;3.40;;;;;;;;;;4991216;28;20033;-44
2021/10/12 13:48:58;;;;;;;4.53;4.05;;;;;;;;;;4986229;28;20031;-48
2021/10/12 13:51:24;;;;;;;3.13;2.67;;;;;;;;;;4994563;28;20033;-45
2021/10/12 13:53:49;;;;;;;2.58;1.33;;;;;;;;;;4985727;28;20027;-45
2021/10/12 13:56:14;;;;;;;5.50;2.38;;;;;;;;;;4991908;28;20026;-48
2021/10/12 13:58:40;;;;;;;3.03;1.80;;;;;;;;;;4985033;28;20026;-49
2021/10/12 14:01:05;;;;;;;4.25;3.20;;;;;;;;;;4990198;28;20110;-49
2021/10/12 14:03:33;;;;;;;3.15;2.58;;;;;;;;;;4988443;28;20665;-46
2021/10/12 14:05:58;;;;;;;3.55;1.77;;;;;;;;;;4989012;28;20027;-45
2021/10/12 14:08:23;;;;;;;7.07;1.67;;;;;;;;;;4993993;28;20189;-50
2021/10/12 14:10:48;;;;;;;2.67;1.88;;;;;;;;;;4994687;28;20025;-49
2021/10/12 14:13:14;;;;;;;3.85;1.83;;;;;;;;;;4987242;28;20494;-44
2021/10/12 14:15:39;;;;;;;3.58;2.55;;;;;;;;;;4987893;28;20018;-46
2021/10/12 14:18:04;;;;;;;1.95;1.20;;;;;;;;;;4986301;28;20034;-45
2021/10/12 14:20:30;;;;;;;2.05;1.45;;;;;;;;;;4992106;28;20026;-51
2021/10/12 14:22:55;;;;;;;4.07;2.47;;;;;;;;;;4983772;28;20110;-45
2021/10/12 14:25:21;;;;;;;9.77;3.25;;;;;;;;;;4981953;28;20397;-46
2021/10/12 14:27:47;;;;;;;3.40;2.80;;;;;;;;;;4986276;28;20077;-49
2021/10/12 14:30:12;;;;;;;3.10;2.55;;;;;;;;;;4985212;28;20480;-46
2021/10/12 14:32:38;;;;;;;3.95;3.42;;;;;;;;;;4988781;28;20486;-43
2021/10/12 14:35:04;;;;;;;1.67;1.25;;;;;;;;;;4990543;28;20105;-50
2021/10/12 14:37:32;;;;;;;12.57;8.95;;;;;;;;;;4987715;28;20110;-47
2021/10/12 14:39:58;;;;;;;4.85;4.03;;;;;;;;;;4991853;28;20018;-45
2021/10/12 14:42:25;;;;;;;4.78;3.22;;;;;;;;;;4993621;28;20225;-49